createdAt,value
2023-01-22T00:00:59.406Z,101490.45
2023-01-22T00:03:26.649Z,101489.35
2023-01-22T00:05:53.687Z,101491.81
2023-01-22T00:08:20.841Z,101493.42
2023-01-22T00:10:56.091Z,101496.02
2023-01-22T00:13:25.000Z,101497.09
2023-01-22T00:15:52.699Z,101503.23
2023-01-22T00:18:20.472Z,101506.75
2023-01-22T00:20:52.666Z,101508.34
2023-01-22T00:23:21.145Z,101510.78
2023-01-22T00:25:48.350Z,101512.52
2023-01-22T00:28:17.040Z,101513.08
2023-01-22T00:30:44.266Z,101517.48
2023-01-22T00:33:11.726Z,101522.41
2023-01-22T00:35:39.846Z,101521.92
2023-01-22T00:38:06.971Z,101521.91
2023-01-22T00:40:34.276Z,101525.29
2023-01-22T00:43:01.549Z,101527.17
2023-01-22T00:45:28.948Z,101526.15
2023-01-22T00:47:56.098Z,101530.47
2023-01-22T00:50:23.259Z,101528.35
2023-01-22T00:52:50.511Z,101529.36
2023-01-22T00:55:18.036Z,101526.23
2023-01-22T00:57:45.247Z,101530.48
2023-01-22T01:00:18.666Z,101534.14
2023-01-22T01:03:06.034Z,101531.34
2023-01-22T01:05:33.555Z,101531.34
2023-01-22T01:08:00.631Z,101523.05
2023-01-22T01:10:28.367Z,101520.54
2023-01-22T01:12:55.453Z,101525.48
2023-01-22T01:15:22.583Z,101520.94
2023-01-22T01:17:49.718Z,101519.89
2023-01-22T01:20:16.995Z,101518.52
2023-01-22T01:22:44.229Z,101515.02
2023-01-22T01:25:11.345Z,101516.11
2023-01-22T01:27:38.586Z,101514.36
2023-01-22T01:30:06.341Z,101515.42
2023-01-22T01:32:33.384Z,101518.05
2023-01-22T01:35:00.515Z,101516.33
2023-01-22T01:37:27.763Z,101519.71
2023-01-22T01:39:54.940Z,101518.86
2023-01-22T01:42:31.177Z,101516.95
2023-01-22T01:45:20.380Z,101516.61
2023-01-22T01:47:53.541Z,101514.57
2023-01-22T01:50:22.899Z,101520.08
2023-01-22T01:52:50.010Z,101523.27
2023-01-22T01:55:21.934Z,101525.05
2023-01-22T01:57:49.153Z,101522.77
2023-01-22T02:00:19.340Z,101520.19
2023-01-22T02:02:47.048Z,101520.73
2023-01-22T02:05:15.179Z,101516.73
2023-01-22T02:07:42.358Z,101518.48
2023-01-22T02:10:11.437Z,101517.48
2023-01-22T02:12:38.729Z,101522.05
2023-01-22T02:15:07.245Z,101521.73
2023-01-22T02:17:34.398Z,101523.16
2023-01-22T02:20:01.648Z,101521.63
2023-01-22T02:22:31.589Z,101524.77
2023-01-22T02:24:59.464Z,101525.52
2023-01-22T02:27:27.662Z,101524.48
2023-01-22T02:29:54.816Z,101523.04
2023-01-22T02:32:22.208Z,101523.56
2023-01-22T02:34:49.364Z,101515.65
2023-01-22T02:37:17.148Z,101513.73
2023-01-22T02:39:44.349Z,101510.91
2023-01-22T02:42:12.203Z,101510.39
2023-01-22T02:44:40.945Z,101512.35
2023-01-22T02:47:08.180Z,101510.64
2023-01-22T02:49:35.424Z,101508.23
2023-01-22T02:52:02.992Z,101506.65
2023-01-22T02:54:30.712Z,101508.63
2023-01-22T02:56:57.870Z,101510.59
2023-01-22T02:59:25.650Z,101512.80
2023-01-22T03:01:52.881Z,101512.23
2023-01-22T03:04:19.953Z,101516.38
2023-01-22T03:06:47.675Z,101512.61
2023-01-22T03:09:16.764Z,101512.34
2023-01-22T03:11:46.451Z,101511.31
2023-01-22T03:14:35.904Z,101515.35
2023-01-22T03:17:22.351Z,101516.19
2023-01-22T03:20:09.876Z,101518.47
2023-01-22T03:22:37.368Z,101518.38
2023-01-22T03:25:04.724Z,101522.33
2023-01-22T03:27:32.590Z,101521.69
2023-01-22T03:29:59.781Z,101522.39
2023-01-22T03:32:27.123Z,101524.45
2023-01-22T03:34:55.234Z,101523.99
2023-01-22T03:37:22.794Z,101526.23
2023-01-22T03:39:51.740Z,101531.34
2023-01-22T03:42:28.054Z,101535.39
2023-01-22T03:44:55.397Z,101536.44
2023-01-22T03:47:22.600Z,101536.20
2023-01-22T03:49:49.991Z,101535.73
2023-01-22T03:52:17.418Z,101530.11
2023-01-22T03:54:45.983Z,101530.09
2023-01-22T03:57:13.250Z,101534.63
2023-01-22T03:59:40.511Z,101532.10
2023-01-22T04:02:07.701Z,101534.31
2023-01-22T04:04:37.185Z,101536.61
2023-01-22T04:07:04.228Z,101536.10
2023-01-22T04:09:31.308Z,101532.45
2023-01-22T04:11:58.946Z,101534.94
2023-01-22T04:14:26.956Z,101539.89
2023-01-22T04:17:03.703Z,101541.49
2023-01-22T04:19:41.456Z,101536.58
2023-01-22T04:22:28.756Z,101542.73
2023-01-22T04:24:56.995Z,101543.84
2023-01-22T04:27:24.157Z,101549.64
2023-01-22T04:29:52.977Z,101551.27
2023-01-22T04:32:20.901Z,101554.05
2023-01-22T04:34:50.704Z,101556.56
2023-01-22T04:37:33.155Z,101557.02
2023-01-22T04:40:00.221Z,101559.53
2023-01-22T04:42:27.522Z,101559.45
2023-01-22T04:44:54.689Z,101562.81
2023-01-22T04:47:21.793Z,101565.98
2023-01-22T04:49:49.102Z,101565.63
2023-01-22T04:52:17.699Z,101569.67
2023-01-22T04:54:44.873Z,101573.02
2023-01-22T04:57:12.963Z,101573.43
2023-01-22T04:59:40.255Z,101576.08
2023-01-22T05:02:07.840Z,101578.54
2023-01-22T05:04:35.264Z,101583.42
2023-01-22T05:07:02.356Z,101583.70
2023-01-22T05:09:30.644Z,101586.30
2023-01-22T05:11:59.934Z,101585.92
2023-01-22T05:14:30.616Z,101585.35
2023-01-22T05:16:58.229Z,101588.17
2023-01-22T05:19:28.857Z,101588.02
2023-01-22T05:21:56.192Z,101588.70
2023-01-22T05:24:23.306Z,101591.00
2023-01-22T05:26:50.566Z,101597.45
2023-01-22T05:29:40.618Z,101602.39
2023-01-22T05:32:24.640Z,101604.79
2023-01-22T05:34:55.079Z,101603.35
2023-01-22T05:37:22.211Z,101602.42
2023-01-22T05:39:52.100Z,101601.67
2023-01-22T05:42:19.326Z,101606.59
2023-01-22T05:44:48.881Z,101607.83
2023-01-22T05:47:19.153Z,101610.61
2023-01-22T05:49:58.959Z,101611.32
2023-01-22T05:52:26.754Z,101614.50
2023-01-22T05:54:53.879Z,101617.98
2023-01-22T05:57:21.112Z,101619.02
2023-01-22T05:59:50.741Z,101621.24
2023-01-22T06:02:17.885Z,101621.79
2023-01-22T06:04:45.610Z,101623.31
2023-01-22T06:07:20.457Z,101624.84
2023-01-22T06:09:48.054Z,101629.58
2023-01-22T06:12:16.138Z,101623.54
2023-01-22T06:14:43.249Z,101628.41
2023-01-22T06:17:11.797Z,101628.70
2023-01-22T06:19:42.735Z,101636.85
2023-01-22T06:22:10.318Z,101635.70
2023-01-22T06:24:57.345Z,101636.55
2023-01-22T06:27:27.220Z,101638.61
2023-01-22T06:29:58.416Z,101640.70
2023-01-22T06:32:26.360Z,101642.92
2023-01-22T06:34:53.547Z,101647.79
2023-01-22T06:37:21.974Z,101647.90
2023-01-22T06:39:49.307Z,101646.34
2023-01-22T06:42:21.621Z,101643.09
2023-01-22T06:44:50.710Z,101643.69
2023-01-22T06:47:17.991Z,101645.85
2023-01-22T06:49:45.254Z,101647.14
2023-01-22T06:52:12.386Z,101646.81
2023-01-22T06:54:39.614Z,101649.27
2023-01-22T06:57:06.745Z,101653.69
2023-01-22T06:59:37.123Z,101654.13
2023-01-22T07:02:04.807Z,101655.06
2023-01-22T07:04:31.877Z,101651.38
2023-01-22T07:06:59.021Z,101652.11
2023-01-22T07:09:26.177Z,101656.34
2023-01-22T07:11:53.310Z,101654.20
2023-01-22T07:14:35.750Z,101655.10
2023-01-22T07:17:03.998Z,101659.80
2023-01-22T07:19:31.076Z,101655.04
2023-01-22T07:21:58.170Z,101660.27
2023-01-22T07:24:25.242Z,101663.52
2023-01-22T07:26:52.343Z,101664.60
2023-01-22T07:29:19.414Z,101665.67
2023-01-22T07:31:49.665Z,101667.20
2023-01-22T07:34:16.973Z,101671.31
2023-01-22T07:36:44.071Z,101671.70
2023-01-22T07:39:11.172Z,101678.65
2023-01-22T07:41:38.303Z,101676.94
2023-01-22T07:44:12.725Z,101682.34
2023-01-22T07:46:40.007Z,101682.39
2023-01-22T07:49:07.819Z,101684.41
2023-01-22T07:51:35.040Z,101686.84
2023-01-22T07:54:02.120Z,101687.88
2023-01-22T07:56:29.264Z,101690.50
2023-01-22T07:58:56.303Z,101689.47
2023-01-22T08:01:23.367Z,101690.55
2023-01-22T08:03:50.749Z,101692.95
2023-01-22T08:06:22.307Z,101691.66
2023-01-22T08:08:50.465Z,101691.93
2023-01-22T08:11:17.610Z,101689.16
2023-01-22T08:13:44.869Z,101690.62
2023-01-22T08:16:12.091Z,101685.20
2023-01-22T08:18:39.156Z,101682.92
2023-01-22T08:21:06.250Z,101681.42
2023-01-22T08:23:33.622Z,101681.66
2023-01-22T08:26:03.446Z,101681.78
2023-01-22T08:28:31.755Z,101679.98
2023-01-22T08:42:55.343Z,101675.83
2023-01-22T08:45:22.546Z,101671.14
2023-01-22T08:47:51.626Z,101667.02
2023-01-22T08:50:19.013Z,101660.81
2023-01-22T08:52:46.351Z,101662.95
2023-01-22T08:55:13.497Z,101661.03
2023-01-22T08:57:40.532Z,101657.21
2023-01-22T09:00:08.845Z,101654.55
2023-01-22T09:02:35.916Z,101653.84
2023-01-22T09:05:03.034Z,101651.42
2023-01-22T09:07:30.171Z,101648.89
2023-01-22T09:09:57.228Z,101645.92
2023-01-22T09:12:24.278Z,101646.47
2023-01-22T09:14:51.435Z,101643.52
2023-01-22T09:17:18.524Z,101639.90
2023-01-22T09:19:45.591Z,101636.85
2023-01-22T09:22:13.060Z,101632.14
2023-01-22T09:24:40.617Z,101630.03
2023-01-22T09:27:09.279Z,101626.05
2023-01-22T09:29:40.833Z,101627.16
2023-01-22T09:32:10.504Z,101624.13
2023-01-22T09:34:37.583Z,101622.63
2023-01-22T09:37:07.953Z,101620.67
2023-01-22T09:39:35.009Z,101619.36
2023-01-22T09:42:04.073Z,101624.95
2023-01-22T09:44:41.889Z,101620.67
2023-01-22T09:47:19.850Z,101624.30
2023-01-22T09:49:57.588Z,101619.91
2023-01-22T09:52:29.673Z,101622.11
2023-01-22T09:54:56.867Z,101618.91
2023-01-22T09:57:31.668Z,101619.95
2023-01-22T09:59:59.603Z,101620.13
2023-01-22T10:02:40.854Z,101617.26
2023-01-22T10:05:35.796Z,101620.16
2023-01-22T10:08:06.062Z,101619.52
2023-01-22T10:10:34.314Z,101622.16
2023-01-22T10:13:19.610Z,101622.27
2023-01-22T10:15:48.526Z,101621.20
2023-01-22T10:18:15.497Z,101620.59
2023-01-22T10:20:43.902Z,101620.98
2023-01-22T10:23:20.568Z,101619.34
2023-01-22T10:25:48.343Z,101619.08
2023-01-22T10:28:16.364Z,101616.83
2023-01-22T10:30:49.053Z,101614.63
2023-01-22T10:33:20.605Z,101613.45
2023-01-22T10:35:50.627Z,101614.29
2023-01-22T10:38:30.912Z,101609.34
2023-01-22T10:41:03.012Z,101610.19
2023-01-22T10:43:34.900Z,101609.80
2023-01-22T10:46:05.241Z,101608.58
2023-01-22T10:48:33.728Z,101608.77
2023-01-22T10:51:20.061Z,101606.98
2023-01-22T10:53:53.024Z,101602.88
2023-01-22T10:56:31.721Z,101601.92
2023-01-22T10:59:03.633Z,101602.92
2023-01-22T11:01:39.918Z,101599.16
2023-01-22T11:04:34.712Z,101593.20
2023-01-22T11:07:09.427Z,101591.55
2023-01-22T11:09:36.823Z,101586.73
2023-01-22T11:12:08.519Z,101591.30
2023-01-22T11:14:38.365Z,101585.49
2023-01-22T11:17:16.876Z,101588.65
2023-01-22T11:19:53.321Z,101583.36
2023-01-22T11:22:28.955Z,101585.89
2023-01-22T11:24:56.050Z,101586.41
2023-01-22T11:27:45.184Z,101587.27
2023-01-22T11:30:39.906Z,101586.12
2023-01-22T11:33:42.857Z,101587.58
2023-01-22T11:36:33.761Z,101586.38
2023-01-22T11:39:19.644Z,101587.52
2023-01-22T11:42:11.825Z,101589.19
2023-01-22T11:44:44.906Z,101587.11
2023-01-22T11:47:41.057Z,101586.07
2023-01-22T11:50:18.954Z,101586.88
2023-01-22T11:53:18.485Z,101590.30
2023-01-22T11:56:14.340Z,101589.70
2023-01-22T11:58:53.048Z,101593.89
2023-01-22T12:01:45.341Z,101593.30
2023-01-22T12:05:03.952Z,101603.91
2023-01-22T12:07:59.057Z,101607.41
2023-01-22T12:10:48.277Z,101611.11
2023-01-22T12:13:57.238Z,101617.31
2023-01-22T12:16:40.856Z,101618.56
2023-01-22T12:19:26.636Z,101617.80
2023-01-22T12:22:29.304Z,101617.77
2023-01-22T12:24:59.341Z,101616.88
2023-01-22T12:27:35.162Z,101618.83
2023-01-22T12:30:48.178Z,101613.83
2023-01-22T12:33:20.889Z,101615.84
2023-01-22T12:35:51.954Z,101615.69
2023-01-22T12:38:32.468Z,101613.64
2023-01-22T12:41:25.257Z,101615.55
2023-01-22T12:44:28.653Z,101614.40
2023-01-22T12:47:05.457Z,101612.16
2023-01-22T12:49:32.524Z,101615.20
2023-01-22T12:52:00.232Z,101615.09
2023-01-22T12:54:30.577Z,101613.83
2023-01-22T12:57:12.619Z,101618.70
2023-01-22T12:59:39.763Z,101622.23
2023-01-22T13:02:28.608Z,101619.24
2023-01-22T13:05:08.714Z,101620.94
2023-01-22T13:07:38.375Z,101620.64
2023-01-22T13:10:05.743Z,101618.92
2023-01-22T13:12:58.122Z,101621.58
2023-01-22T13:15:32.877Z,101624.63
2023-01-22T13:18:07.013Z,101625.27
2023-01-22T13:21:04.953Z,101626.77
2023-01-22T13:23:36.592Z,101627.66
2023-01-22T13:26:04.997Z,101626.24
2023-01-22T13:28:32.969Z,101630.17
2023-01-22T13:31:06.317Z,101633.52
2023-01-22T13:33:33.652Z,101632.11
2023-01-22T13:36:11.096Z,101637.84
2023-01-22T13:38:38.497Z,101637.53
2023-01-22T13:41:13.273Z,101640.91
2023-01-22T13:43:42.663Z,101643.61
2023-01-22T13:46:14.537Z,101646.70
2023-01-22T13:48:41.882Z,101646.88
2023-01-22T13:51:18.567Z,101647.54
2023-01-22T13:53:54.786Z,101646.45
2023-01-22T13:56:26.813Z,101648.26
2023-01-22T13:59:16.805Z,101649.17
2023-01-22T14:01:43.991Z,101647.64
2023-01-22T14:04:28.407Z,101646.48
2023-01-22T14:06:56.047Z,101648.27
2023-01-22T14:09:33.462Z,101650.55
2023-01-22T14:12:12.537Z,101645.62
2023-01-22T14:14:40.746Z,101651.55
2023-01-22T14:17:08.373Z,101653.46
2023-01-22T14:19:36.495Z,101657.29
2023-01-22T14:22:03.605Z,101656.85
2023-01-22T14:24:30.799Z,101662.82
2023-01-22T14:26:58.222Z,101665.08
2023-01-22T14:29:25.516Z,101665.10
2023-01-22T14:31:52.830Z,101669.63
2023-01-22T14:34:19.948Z,101670.33
2023-01-22T14:36:48.558Z,101669.81
2023-01-22T14:39:15.859Z,101667.75
2023-01-22T14:41:43.057Z,101666.39
2023-01-22T14:44:11.215Z,101665.23
2023-01-22T14:46:38.323Z,101663.17
2023-01-22T14:49:05.736Z,101663.42
2023-01-22T14:51:32.903Z,101663.29
2023-01-22T14:54:00.023Z,101664.71
2023-01-22T14:56:27.250Z,101666.15
2023-01-22T14:58:54.433Z,101667.05
2023-01-22T15:01:22.921Z,101668.52
2023-01-22T15:03:50.245Z,101669.60
2023-01-22T15:06:17.724Z,101666.45
2023-01-22T15:08:44.812Z,101667.11
2023-01-22T15:11:11.991Z,101671.11
2023-01-22T15:13:39.039Z,101668.08
2023-01-22T15:16:09.691Z,101668.41
2023-01-22T15:18:37.728Z,101665.55
2023-01-22T15:21:06.293Z,101666.20
2023-01-22T15:23:34.816Z,101669.23
2023-01-22T15:26:05.148Z,101667.42
2023-01-22T15:28:32.284Z,101670.20
2023-01-22T15:31:10.417Z,101667.55
2023-01-22T15:33:37.805Z,101671.03
2023-01-22T15:36:05.723Z,101671.34
2023-01-22T15:38:32.849Z,101669.21
2023-01-22T15:41:08.539Z,101670.00
2023-01-22T15:43:35.661Z,101672.72
2023-01-22T15:46:02.940Z,101675.13
2023-01-22T15:48:30.068Z,101674.58
2023-01-22T15:51:07.314Z,101679.59
2023-01-22T15:53:34.503Z,101678.51
2023-01-22T15:56:04.510Z,101680.86
2023-01-22T15:58:32.876Z,101683.57
2023-01-22T16:01:00.653Z,101684.52
2023-01-22T16:03:27.858Z,101688.27
2023-01-22T16:05:54.925Z,101689.46
2023-01-22T16:08:22.347Z,101686.91
2023-01-22T16:10:49.347Z,101686.45
2023-01-22T16:13:16.383Z,101690.05
2023-01-22T16:15:44.044Z,101690.45
2023-01-22T16:18:11.081Z,101694.80
2023-01-22T16:20:38.214Z,101694.20
2023-01-22T16:23:07.141Z,101690.63
2023-01-22T16:25:35.058Z,101691.85
2023-01-22T16:28:02.389Z,101693.93
2023-01-22T16:30:30.852Z,101697.06
2023-01-22T16:32:58.437Z,101693.90
2023-01-22T16:35:25.723Z,101689.66
2023-01-22T16:37:52.738Z,101692.10
2023-01-22T16:40:19.975Z,101690.11
2023-01-22T16:43:05.948Z,101688.01
2023-01-22T16:45:35.265Z,101688.16
2023-01-22T16:48:02.503Z,101687.95
2023-01-22T16:50:29.680Z,101692.12
2023-01-22T16:52:56.811Z,101688.74
2023-01-22T16:55:24.178Z,101687.16
2023-01-22T16:57:52.337Z,101689.78
2023-01-22T17:00:20.494Z,101687.48
2023-01-22T17:02:47.853Z,101683.95
2023-01-22T17:05:15.129Z,101682.41
2023-01-22T17:07:42.197Z,101682.73
2023-01-22T17:10:10.028Z,101685.67
2023-01-22T17:12:37.091Z,101685.33
2023-01-22T17:15:04.460Z,101682.09
2023-01-22T17:17:32.100Z,101677.81
2023-01-22T17:19:59.267Z,101675.46
2023-01-22T17:22:27.406Z,101671.55
2023-01-22T17:24:54.984Z,101671.89
2023-01-22T17:27:26.044Z,101669.23
2023-01-22T17:29:53.452Z,101670.27
2023-01-22T17:32:22.867Z,101666.92
2023-01-22T17:34:50.088Z,101666.63
2023-01-22T17:37:17.577Z,101668.95
2023-01-22T17:39:50.774Z,101668.33
2023-01-22T17:42:18.876Z,101672.61
2023-01-22T17:44:46.076Z,101674.08
2023-01-22T17:47:13.714Z,101672.52
2023-01-22T17:49:40.933Z,101672.39
2023-01-22T17:52:09.454Z,101674.57
2023-01-22T17:54:37.248Z,101673.89
2023-01-22T17:57:05.536Z,101672.86
2023-01-22T17:59:33.557Z,101669.55
2023-01-22T18:02:00.767Z,101676.04
2023-01-22T18:04:31.677Z,101678.61
2023-01-22T18:06:58.944Z,101677.91
2023-01-22T18:09:26.640Z,101672.20
2023-01-22T18:11:54.627Z,101674.39
2023-01-22T18:14:22.950Z,101670.42
2023-01-22T18:16:51.069Z,101670.82
2023-01-22T18:19:19.044Z,101675.30
2023-01-22T18:21:46.869Z,101675.70
2023-01-22T18:24:14.682Z,101677.86
2023-01-22T18:26:42.919Z,101678.80
2023-01-22T18:29:12.161Z,101679.05
2023-01-22T18:31:42.089Z,101675.05
2023-01-22T18:34:10.884Z,101676.16
2023-01-22T18:36:39.202Z,101677.40
2023-01-22T18:39:10.173Z,101678.13
2023-01-22T18:41:38.173Z,101678.33
2023-01-22T18:44:06.950Z,101677.70
2023-01-22T18:46:37.132Z,101677.16
2023-01-22T18:49:06.610Z,101676.80
2023-01-22T18:51:34.742Z,101674.52
2023-01-22T18:54:05.193Z,101673.97
2023-01-22T18:56:32.667Z,101669.21
2023-01-22T18:59:00.330Z,101671.48
2023-01-22T19:01:30.920Z,101671.12
2023-01-22T19:04:01.085Z,101671.10
2023-01-22T19:06:31.846Z,101666.15
2023-01-22T19:09:03.798Z,101666.13
2023-01-22T19:11:33.033Z,101670.13
2023-01-22T19:14:03.245Z,101667.11
2023-01-22T19:16:30.768Z,101668.67
2023-01-22T19:19:04.258Z,101668.54
2023-01-22T19:21:31.578Z,101664.52
2023-01-22T19:24:01.329Z,101669.77
2023-01-22T19:26:34.282Z,101670.66
2023-01-22T19:29:06.214Z,101669.77
2023-01-22T19:31:36.881Z,101671.50
2023-01-22T19:34:06.570Z,101669.79
2023-01-22T19:36:38.346Z,101669.66
2023-01-22T19:39:11.709Z,101672.00
2023-01-22T19:41:40.083Z,101670.53
2023-01-22T19:44:07.885Z,101669.97
2023-01-22T19:46:35.352Z,101673.75
2023-01-22T19:49:02.681Z,101673.49
2023-01-22T19:51:30.942Z,101673.56
2023-01-22T19:54:02.407Z,101673.27
2023-01-22T19:56:33.282Z,101674.33
2023-01-22T19:59:06.080Z,101678.40
2023-01-22T20:01:35.326Z,101679.27
2023-01-22T20:04:04.059Z,101679.09
2023-01-22T20:06:31.138Z,101679.25
2023-01-22T20:08:58.261Z,101679.77
2023-01-22T20:11:25.804Z,101681.02
2023-01-22T20:13:52.957Z,101685.75
2023-01-22T20:16:23.543Z,101688.56
2023-01-22T20:18:52.482Z,101686.10
2023-01-22T20:21:21.997Z,101685.74
2023-01-22T20:23:51.110Z,101686.77
2023-01-22T20:26:20.482Z,101686.78
2023-01-22T20:28:48.344Z,101687.45
2023-01-22T20:31:20.136Z,101688.15
2023-01-22T20:33:47.432Z,101689.89
2023-01-22T20:36:15.484Z,101690.96
2023-01-22T20:38:47.626Z,101692.20
2023-01-22T20:41:15.100Z,101691.35
2023-01-22T20:43:43.993Z,101691.56
2023-01-22T20:46:18.967Z,101691.98
2023-01-22T20:48:46.504Z,101689.78
2023-01-22T20:51:18.194Z,101688.83
2023-01-22T20:53:47.225Z,101689.09
2023-01-22T20:56:18.206Z,101688.48
2023-01-22T20:58:45.496Z,101688.05
2023-01-22T21:01:16.466Z,101693.17
2023-01-22T21:03:44.302Z,101695.45
2023-01-22T21:06:14.571Z,101694.58
2023-01-22T21:08:43.295Z,101697.89
2023-01-22T21:11:13.253Z,101699.91
2023-01-22T21:13:40.635Z,101702.50
2023-01-22T21:16:10.202Z,101704.02
2023-01-22T21:18:41.585Z,101707.29
2023-01-22T21:21:09.818Z,101707.24
2023-01-22T21:23:38.496Z,101707.55
2023-01-22T21:26:11.472Z,101706.33
2023-01-22T21:28:42.874Z,101707.00
2023-01-22T21:31:12.915Z,101706.98
2023-01-22T21:33:41.468Z,101702.27
2023-01-22T21:36:10.447Z,101699.84
2023-01-22T21:38:38.799Z,101700.55
2023-01-22T21:41:12.711Z,101691.80
2023-01-22T21:44:00.385Z,101690.92
2023-01-22T21:46:31.815Z,101686.01
2023-01-22T21:49:16.487Z,101688.30
2023-01-22T21:51:49.687Z,101686.75
2023-01-22T21:54:23.778Z,101681.13
2023-01-22T21:56:51.780Z,101679.75
2023-01-22T21:59:19.419Z,101677.83
2023-01-22T22:01:46.894Z,101676.27
2023-01-22T22:04:15.248Z,101678.91
2023-01-22T22:06:42.785Z,101676.55
2023-01-22T22:09:22.071Z,101671.55
2023-01-22T22:11:50.024Z,101675.18
2023-01-22T22:14:22.196Z,101676.02
2023-01-22T22:16:49.844Z,101680.91
2023-01-22T22:19:18.262Z,101678.95
2023-01-22T22:21:46.157Z,101679.46
2023-01-22T22:24:14.566Z,101686.48
2023-01-22T22:26:41.746Z,101681.80
2023-01-22T22:29:10.224Z,101685.05
2023-01-22T22:31:38.253Z,101686.71
2023-01-22T22:34:05.975Z,101687.45
2023-01-22T22:36:33.596Z,101686.59
2023-01-22T22:39:01.710Z,101691.50
2023-01-22T22:41:32.367Z,101690.45
2023-01-22T22:44:00.251Z,101688.15
2023-01-22T22:46:38.547Z,101689.59
2023-01-22T22:49:07.031Z,101692.92
2023-01-22T22:51:39.780Z,101694.17
2023-01-22T22:54:12.026Z,101699.23
2023-01-22T22:56:39.126Z,101698.70
2023-01-22T22:59:06.413Z,101702.36
2023-01-22T23:01:35.732Z,101704.23
2023-01-22T23:04:03.021Z,101705.55
2023-01-22T23:06:33.359Z,101704.43
2023-01-22T23:09:14.799Z,101703.84
2023-01-22T23:11:42.563Z,101706.38
2023-01-22T23:14:10.725Z,101704.36
2023-01-22T23:16:41.337Z,101709.29
2023-01-22T23:19:13.941Z,101710.43
2023-01-22T23:21:41.840Z,101713.87
2023-01-22T23:24:12.162Z,101718.33
2023-01-22T23:26:40.460Z,101715.61
2023-01-22T23:29:10.291Z,101716.80
2023-01-22T23:31:39.506Z,101715.48
2023-01-22T23:34:14.815Z,101715.98
2023-01-22T23:36:45.306Z,101713.45
2023-01-22T23:39:14.954Z,101715.11
2023-01-22T23:41:42.857Z,101713.31
2023-01-22T23:44:10.411Z,101718.32
2023-01-22T23:46:39.025Z,101718.23
2023-01-22T23:49:06.552Z,101718.85
2023-01-22T23:51:33.813Z,101718.77
2023-01-22T23:54:01.039Z,101721.69
2023-01-22T23:56:32.380Z,101714.65
2023-01-22T23:59:00.163Z,101716.67
